Time;durP1;ratioP1;P1;durP2;ratioP2;P2;SDS_P1;SDS_P2;PMS_P1;PMS_P2;Temp;Humidity;BMP_temperature;BMP_pressure;BME280_temperature;BME280_humidity;BME280_pressure;Samples;Min_cycle;Max_cycle;Signal;HPM_P1;HPM_P2
2021/06/26 12:20:27;;;;;;;;;4.00;4.00;;;;;22.39;59.13;100971.41;5070124;27;45424;-60
2021/06/26 12:23:11;;;;;;;;;6.00;5.25;;;;;22.36;59.49;100969.97;5080800;27;45476;-60
2021/06/26 12:25:38;;;;;;;;;4.50;4.50;;;;;22.29;59.24;100968.31;4992351;27;45164;-60
2021/06/26 12:28:03;;;;;;;;;5.75;4.00;;;;;22.22;60.69;100977.16;5016322;27;45554;-60
2021/06/26 12:30:29;;;;;;;;;4.00;4.00;;;;;22.17;61.03;100973.44;5000642;27;45448;-60
2021/06/26 12:33:11;;;;;;;;;5.00;4.25;;;;;22.14;61.32;100968.50;5020991;27;54497;-60
2021/06/26 12:35:36;;;;;;;;;4.00;4.00;;;;;22.06;59.10;100967.66;5020672;27;45451;-61
2021/06/26 12:38:02;;;;;;;;;9.00;6.00;;;;;22.04;61.06;100963.50;5001484;27;45593;-59
2021/06/26 12:40:29;;;;;;;;;5.00;5.00;;;;;22.01;60.67;100972.78;4996408;27;47863;-60
2021/06/26 12:42:58;;;;;;;;;7.00;6.00;;;;;21.99;59.20;100980.19;5019278;27;45451;-60
2021/06/26 12:45:53;;;;;;;;;6.25;6.00;;;;;21.97;59.73;100968.84;5013091;27;45383;-60
2021/06/26 12:48:25;;;;;;;;;4.00;4.00;;;;;21.98;58.93;100965.16;5027914;27;45584;-60
2021/06/26 12:51:01;;;;;;;;;5.00;4.25;;;;;21.98;58.93;100970.50;5012022;27;46318;-59
2021/06/26 12:53:39;;;;;;;;;6.00;4.50;;;;;22.03;59.23;100956.50;5018087;27;45895;-60
2021/06/26 12:56:07;;;;;;;;;5.50;4.50;;;;;22.07;58.68;100958.59;5008818;27;45490;-60
2021/06/26 12:58:33;;;;;;;;;6.00;5.00;;;;;22.14;58.32;100947.09;5024774;27;45505;-59
2021/06/26 13:00:58;;;;;;;;;4.00;4.00;;;;;22.18;58.35;100953.69;5034902;27;52826;-60
2021/06/26 13:03:23;;;;;;;;;6.00;6.00;;;;;22.21;58.29;100953.28;5043689;27;70459;-59
2021/06/26 13:05:49;;;;;;;;;7.25;6.00;;;;;22.24;57.46;100947.53;5031579;27;45384;-60
2021/06/26 13:08:16;;;;;;;;;5.00;5.00;;;;;22.25;57.20;100946.50;5022796;27;56208;-60
2021/06/26 13:10:51;;;;;;;;;4.50;4.50;;;;;22.28;57.22;100942.56;5036744;27;46242;-60
2021/06/26 13:13:17;;;;;;;;;4.00;4.00;;;;;22.29;57.50;100934.31;5033150;27;45904;-59
2021/06/26 13:15:42;;;;;;;;;5.75;4.00;;;;;22.32;57.25;100931.25;5035464;27;45457;-60
2021/06/26 13:18:08;;;;;;;;;5.00;5.00;;;;;22.33;57.15;100924.84;5055145;27;45458;-59
2021/06/26 13:20:33;;;;;;;;;5.75;5.75;;;;;22.34;57.56;100926.50;5055761;27;73047;-59
2021/06/26 13:22:58;;;;;;;;;5.75;4.00;;;;;22.36;57.06;100921.78;5070101;27;69914;-60
2021/06/26 13:25:24;;;;;;;;;6.75;5.50;;;;;22.38;57.36;100913.56;5040280;27;64179;-59
2021/06/26 13:27:49;;;;;;;;;8.75;6.00;;;;;22.39;57.29;100913.34;5052023;27;67554;-60
2021/06/26 13:30:16;;;;;;;;;6.00;5.50;;;;;22.40;57.53;100919.53;5045769;27;45981;-59
2021/06/26 13:32:41;;;;;;;;;6.00;4.50;;;;;22.40;57.74;100908.81;5053998;27;45319;-60
2021/06/26 13:35:07;;;;;;;;;6.50;5.50;;;;;22.42;57.64;100906.75;5014067;28;45196;-59
2021/06/26 13:37:33;;;;;;;;;4.00;4.00;;;;;22.44;56.95;100904.72;5003436;27;45216;-60
2021/06/26 13:39:58;;;;;;;;;9.00;6.00;;;;;22.46;57.05;100902.66;5008159;28;45209;-59
2021/06/26 13:42:24;;;;;;;;;6.75;5.00;;;;;22.51;57.70;100894.00;4994529;27;53342;-60
2021/06/26 13:44:50;;;;;;;;;7.25;5.00;;;;;22.57;57.26;100900.38;4984137;28;45246;-59
2021/06/26 13:47:16;;;;;;;;;5.00;5.00;;;;;22.61;56.47;100891.75;5005379;28;45456;-60
2021/06/26 13:49:41;;;;;;;;;5.25;4.75;;;;;22.66;56.15;100889.28;5008532;27;57065;-59
2021/06/26 13:52:07;;;;;;;;;5.00;5.00;;;;;22.71;56.10;100890.50;5000953;27;45503;-59
2021/06/26 13:54:33;;;;;;;;;5.00;4.25;;;;;22.75;55.93;100883.69;4990854;28;45519;-60
2021/06/26 13:56:58;;;;;;;;;6.00;6.00;;;;;22.79;55.72;100887.56;4997971;28;45510;-60
2021/06/26 13:59:23;;;;;;;;;6.25;5.00;;;;;22.83;55.35;100886.97;5016930;28;45263;-61
2021/06/26 14:01:49;;;;;;;;;7.50;6.25;;;;;22.88;55.51;100880.97;4996675;28;54570;-59
2021/06/26 14:04:14;;;;;;;;;7.50;6.00;;;;;22.94;55.38;100876.66;4998354;28;45319;-60
2021/06/26 14:06:40;;;;;;;;;6.00;5.75;;;;;22.98;55.68;100872.50;5000055;28;57839;-59
2021/06/26 14:09:06;;;;;;;;;6.00;6.00;;;;;23.03;55.35;100872.72;4980066;28;45925;-60
2021/06/26 14:11:33;;;;;;;;;6.50;6.50;;;;;23.09;54.63;100869.16;5007878;28;45403;-59
2021/06/26 14:13:58;;;;;;;;;8.00;6.00;;;;;23.13;54.93;100866.91;5036831;28;45566;-60
2021/06/26 14:16:24;;;;;;;;;8.25;7.25;;;;;23.16;54.86;100869.16;5002722;28;52102;-60
2021/06/26 14:18:49;;;;;;;;;6.25;6.25;;;;;23.19;55.14;100860.69;5007620;27;46400;-60
2021/06/26 14:21:15;;;;;;;;;6.00;5.75;;;;;23.22;54.46;100862.09;5028485;27;60480;-59
2021/06/26 14:23:40;;;;;;;;;7.00;5.75;;;;;23.24;54.71;100858.22;5020779;27;54835;-60
2021/06/26 14:26:06;;;;;;;;;4.00;4.00;;;;;23.27;54.53;100860.50;5032998;28;45752;-60
2021/06/26 14:28:31;;;;;;;;;6.75;6.00;;;;;23.31;54.49;100854.69;5011135;28;45783;-60
2021/06/26 14:30:57;;;;;;;;;6.50;6.50;;;;;23.34;54.46;100843.53;5006537;28;45744;-60
2021/06/26 14:33:22;;;;;;;;;7.00;5.25;;;;;23.38;54.95;100839.38;5022918;28;45489;-60
2021/06/26 14:35:48;;;;;;;;;9.25;7.00;;;;;23.42;53.64;100845.97;5040552;27;56311;-60
2021/06/26 14:38:13;;;;;;;;;10.75;8.75;;;;;23.44;54.40;100846.56;5023991;27;70278;-59
2021/06/26 14:40:40;;;;;;;;;8.00;7.00;;;;;23.47;53.16;100837.28;5032095;28;45480;-59
2021/06/26 14:43:05;;;;;;;;;6.75;6.75;;;;;23.50;53.20;100843.03;5026154;28;45326;-60
2021/06/26 14:45:31;;;;;;;;;6.50;6.50;;;;;23.52;53.39;100834.78;5054611;27;60948;-59
2021/06/26 14:47:57;;;;;;;;;9.00;9.00;;;;;23.53;53.78;100825.72;5023041;27;71196;-60
2021/06/26 14:50:22;;;;;;;;;6.50;6.50;;;;;23.53;53.58;100831.88;4991968;28;46051;-59
2021/06/26 14:52:48;;;;;;;;;10.25;7.00;;;;;23.57;53.65;100832.28;5017625;27;61133;-60
2021/06/26 14:55:14;;;;;;;;;9.50;8.00;;;;;23.59;53.52;100821.31;5042469;27;45577;-59
2021/06/26 14:57:39;;;;;;;;;7.25;6.00;;;;;23.58;53.27;100820.50;4973421;28;46101;-60
2021/06/26 15:00:06;;;;;;;;;5.75;5.00;;;;;23.59;53.77;100816.78;4975761;28;45382;-60
2021/06/26 15:02:32;;;;;;;;;6.00;5.00;;;;;23.60;53.70;100814.94;4973223;28;45461;-61
2021/06/26 15:04:59;;;;;;;;;5.75;5.50;;;;;23.61;53.32;100822.75;4973877;28;59905;-61
2021/06/26 15:07:24;;;;;;;;;5.00;5.00;;;;;23.63;52.54;100811.81;4977029;27;45305;-60
2021/06/26 15:09:50;;;;;;;;;7.25;6.00;;;;;23.63;53.42;100806.44;4972937;28;54070;-60
2021/06/26 15:12:15;;;;;;;;;4.50;4.50;;;;;23.63;52.66;100801.91;4974410;28;46830;-60
2021/06/26 15:14:41;;;;;;;;;8.00;7.00;;;;;23.64;52.78;100803.53;4973345;28;63951;-60
2021/06/26 15:17:06;;;;;;;;;7.25;6.75;;;;;23.66;53.43;100796.09;4974168;28;46474;-61
2021/06/26 15:19:32;;;;;;;;;8.50;5.50;;;;;23.67;53.33;100795.06;4974146;28;45399;-60
2021/06/26 15:21:57;;;;;;;;;8.00;8.00;;;;;23.66;53.16;100793.41;4974425;28;45460;-59
2021/06/26 15:24:23;;;;;;;;;7.00;5.75;;;;;23.64;53.22;100787.44;4973925;28;56893;-60
2021/06/26 15:26:48;;;;;;;;;5.25;5.25;;;;;23.61;53.07;100782.50;4973446;28;64094;-60
2021/06/26 15:29:13;;;;;;;;;7.25;7.00;;;;;23.60;53.38;100778.19;4973290;28;69688;-60
2021/06/26 15:31:40;;;;;;;;;5.50;5.50;;;;;23.60;53.80;100778.19;4974405;28;45362;-59
2021/06/26 15:34:06;;;;;;;;;6.00;5.00;;;;;23.61;53.47;100785.19;4974299;28;45592;-59
2021/06/26 15:36:32;;;;;;;;;5.75;5.75;;;;;23.62;53.91;100781.47;4973498;28;63564;-60
2021/06/26 15:38:58;;;;;;;;;5.00;5.00;;;;;23.63;53.53;100783.13;4974114;28;45338;-59
2021/06/26 15:41:24;;;;;;;;;9.00;8.25;;;;;23.63;53.70;100777.75;4974115;28;45312;-60
2021/06/26 15:43:49;;;;;;;;;6.75;5.00;;;;;23.64;53.56;100778.59;4974410;28;45603;-60
2021/06/26 15:46:14;;;;;;;;;5.75;5.00;;;;;23.63;53.99;100776.94;4973197;28;66009;-60
2021/06/26 15:48:40;;;;;;;;;7.00;7.00;;;;;23.64;53.54;100770.53;4973136;28;70066;-60
2021/06/26 15:51:05;;;;;;;;;5.25;5.25;;;;;23.66;53.45;100771.94;4973555;28;59498;-60
2021/06/26 15:53:30;;;;;;;;;5.25;4.00;;;;;23.68;53.55;100777.13;4973123;28;62617;-61
2021/06/26 15:55:59;;;;;;;;;5.25;5.25;;;;;23.69;53.47;100770.72;4973227;28;66789;-60
2021/06/26 15:58:25;;;;;;;;;6.00;5.50;;;;;23.69;53.28;100765.34;4973892;28;45226;-59
2021/06/26 16:00:50;;;;;;;;;7.75;6.00;;;;;23.69;53.36;100768.03;4973992;28;45517;-59
2021/06/26 16:03:16;;;;;;;;;5.25;5.25;;;;;23.68;52.96;100767.19;4973965;28;45443;-60
2021/06/26 16:05:41;;;;;;;;;7.00;7.00;;;;;23.67;53.61;100762.06;4973275;28;61444;-60
2021/06/26 16:08:07;;;;;;;;;5.25;5.25;;;;;23.65;53.39;100764.13;4972945;28;62160;-60
2021/06/26 16:10:32;;;;;;;;;8.00;7.00;;;;;23.64;53.35;100767.84;4973844;28;45418;-60
2021/06/26 16:12:57;;;;;;;;;5.00;5.00;;;;;23.63;53.32;100764.34;4973085;28;59177;-60
2021/06/26 16:15:23;;;;;;;;;7.00;6.25;;;;;23.63;53.63;100760.84;4973170;28;66654;-60
2021/06/26 16:17:48;;;;;;;;;7.00;6.00;;;;;23.63;53.57;100761.66;4972892;28;69297;-60
2021/06/26 16:20:13;;;;;;;;;8.75;7.00;;;;;23.62;54.20;100759.22;4973011;28;60540;-61
2021/06/26 16:22:39;;;;;;;;;6.25;6.00;;;;;23.63;53.77;100766.22;4973768;28;45402;-60
2021/06/26 16:25:05;;;;;;;;;6.75;6.00;;;;;23.63;53.63;100760.84;4973337;28;45913;-60
2021/06/26 16:27:30;;;;;;;;;6.00;6.00;;;;;23.63;54.25;100748.25;4974550;28;45282;-60
2021/06/26 16:29:56;;;;;;;;;7.75;7.25;;;;;23.63;54.04;100747.44;4973464;28;45290;-59
2021/06/26 16:32:21;;;;;;;;;11.25;7.50;;;;;23.63;54.46;100745.56;4972855;28;57302;-59
2021/06/26 16:34:47;;;;;;;;;5.25;4.75;;;;;23.64;54.61;100743.72;4973344;28;45807;-60
2021/06/26 16:37:12;;;;;;;;;8.00;7.25;;;;;23.63;54.05;100734.03;4973090;28;54928;-60
2021/06/26 16:39:45;;;;;;;;;6.00;6.00;;;;;23.62;54.19;100741.25;4972231;28;45197;-60
2021/06/26 16:42:11;;;;;;;;;5.00;5.00;;;;;23.61;54.56;100738.78;4973723;28;45321;-60
2021/06/26 16:44:37;;;;;;;;;6.00;6.00;;;;;23.60;55.04;100731.78;4972466;28;64211;-59
2021/06/26 16:47:02;;;;;;;;;5.00;5.00;;;;;23.59;54.73;100733.63;4973511;27;45296;-60
2021/06/26 16:49:27;;;;;;;;;6.00;6.00;;;;;23.58;54.54;100731.19;4973423;28;45342;-61
2021/06/26 16:51:53;;;;;;;;;7.50;6.25;;;;;23.57;55.01;100727.69;4973390;28;45497;-60
2021/06/26 16:54:18;;;;;;;;;8.50;6.00;;;;;23.57;55.04;100730.38;4972103;28;73333;-60
2021/06/26 16:56:44;;;;;;;;;7.75;6.50;;;;;23.55;55.90;100727.88;4972372;28;68356;-59
2021/06/26 16:59:09;;;;;;;;;7.75;7.50;;;;;23.52;55.23;100733.69;4972424;28;65228;-60
2021/06/26 17:01:34;;;;;;;;;6.00;5.75;;;;;23.51;55.49;100731.25;4972946;28;45569;-61
2021/06/26 17:04:00;;;;;;;;;6.00;6.00;;;;;23.50;55.59;100737.63;4972879;28;45386;-61
2021/06/26 17:06:25;;;;;;;;;6.50;6.00;;;;;23.48;55.35;100745.06;4974133;28;63028;-61
2021/06/26 17:08:50;;;;;;;;;5.00;5.00;;;;;23.47;55.33;100743.44;4976194;28;45272;-59
2021/06/26 17:11:16;;;;;;;;;7.00;7.00;;;;;23.45;56.02;100732.91;4977791;28;45329;-61
2021/06/26 17:13:41;;;;;;;;;8.50;7.00;;;;;23.45;55.81;100732.09;4975819;28;46162;-60
2021/06/26 17:16:07;;;;;;;;;7.75;5.75;;;;;23.44;55.54;100731.25;4975563;28;63846;-60
2021/06/26 17:18:33;;;;;;;;;6.00;5.00;;;;;23.42;55.96;100736.84;4975891;28;45486;-59
2021/06/26 17:20:59;;;;;;;;;7.75;7.75;;;;;23.44;55.38;100736.63;4976225;28;45384;-59
2021/06/26 17:23:25;;;;;;;;;6.25;6.25;;;;;23.44;55.91;100730.47;4976007;28;45482;-60
2021/06/26 17:25:50;;;;;;;;;5.00;4.50;;;;;23.44;55.31;100735.81;4975966;28;45246;-61
2021/06/26 17:28:16;;;;;;;;;6.25;6.25;;;;;23.43;55.84;100734.97;4975136;28;61047;-60
2021/06/26 17:30:42;;;;;;;;;7.50;6.75;;;;;23.42;56.08;100733.34;4976126;28;45212;-59
2021/06/26 17:33:08;;;;;;;;;8.00;6.00;;;;;23.41;55.87;100737.06;4975724;28;45257;-60
2021/06/26 17:35:33;;;;;;;;;5.00;5.00;;;;;23.40;55.83;100743.47;4975389;28;56005;-61
2021/06/26 17:37:58;;;;;;;;;5.00;4.50;;;;;23.39;55.97;100739.13;4975399;28;57113;-59
2021/06/26 17:40:24;;;;;;;;;6.00;4.25;;;;;23.37;55.98;100738.53;4975038;28;66721;-60
2021/06/26 17:42:49;;;;;;;;;6.50;6.00;;;;;23.35;56.11;100740.59;4974955;28;68699;-59
2021/06/26 17:45:14;;;;;;;;;7.50;6.00;;;;;23.33;55.76;100746.19;4975833;28;45233;-60
2021/06/26 17:47:42;;;;;;;;;8.00;6.50;;;;;23.32;55.43;100743.72;4975938;28;45608;-59
2021/06/26 17:50:08;;;;;;;;;6.00;6.00;;;;;23.30;56.42;100741.25;4976031;28;45407;-60
2021/06/26 17:52:33;;;;;;;;;6.00;6.00;;;;;23.29;55.83;100742.31;4975548;28;45586;-60
2021/06/26 17:54:58;;;;;;;;;5.50;5.25;;;;;23.25;55.79;100741.94;4975316;28;54802;-60
2021/06/26 17:57:24;;;;;;;;;5.00;4.50;;;;;23.23;56.60;100745.84;4975829;28;45609;-60
2021/06/26 17:59:49;;;;;;;;;5.00;4.00;;;;;23.21;56.48;100747.88;4974779;28;61773;-59
2021/06/26 18:02:15;;;;;;;;;8.50;6.25;;;;;23.20;56.54;100747.06;4975497;28;45776;-60
2021/06/26 18:04:40;;;;;;;;;6.25;5.25;;;;;23.19;56.04;100745.44;4974582;28;72532;-60
2021/06/26 18:07:05;;;;;;;;;5.75;5.75;;;;;23.18;56.22;100743.78;4975709;28;45355;-59
2021/06/26 18:09:31;;;;;;;;;8.00;7.00;;;;;23.18;55.96;100753.66;4975269;28;52494;-59
2021/06/26 18:11:56;;;;;;;;;6.50;6.50;;;;;23.14;55.88;100753.28;4974543;28;75155;-60
2021/06/26 18:14:22;;;;;;;;;5.00;5.00;;;;;23.09;56.67;100743.19;4974875;28;64195;-59
2021/06/26 18:16:47;;;;;;;;;6.25;6.25;;;;;23.08;55.97;100746.09;4975576;28;45509;-59
2021/06/26 18:19:13;;;;;;;;;9.25;8.00;;;;;23.04;56.48;100742.22;4974813;28;56780;-60
2021/06/26 18:21:38;;;;;;;;;9.25;8.00;;;;;23.03;56.97;100735.19;4975379;28;46448;-59
2021/06/26 18:24:04;;;;;;;;;9.75;7.50;;;;;23.01;57.18;100737.28;4975474;28;45395;-61
2021/06/26 18:26:30;;;;;;;;;8.25;5.75;;;;;22.97;57.17;100732.34;4975440;28;45228;-61
2021/06/26 18:28:55;;;;;;;;;5.75;5.00;;;;;22.95;56.90;100737.09;4974881;28;62928;-60
2021/06/26 18:31:20;;;;;;;;;6.75;6.75;;;;;22.90;56.85;100731.53;4975224;28;46202;-61
2021/06/26 18:33:46;;;;;;;;;7.00;7.00;;;;;22.89;57.02;100729.91;4975142;28;45283;-61
2021/06/26 18:36:11;;;;;;;;;6.00;6.00;;;;;22.86;57.69;100724.97;4975425;28;45299;-60
2021/06/26 18:38:38;;;;;;;;;10.25;7.50;;;;;22.81;57.43;100724.78;4975260;28;45581;-60
2021/06/26 18:41:04;;;;;;;;;8.25;6.50;;;;;22.79;57.88;100726.84;4975226;28;46056;-60
2021/06/26 18:43:29;;;;;;;;;6.00;5.00;;;;;22.74;57.74;100726.69;4975343;28;45505;-61
2021/06/26 18:45:55;;;;;;;;;6.00;6.00;;;;;22.70;57.73;100725.47;4975189;28;45358;-61
2021/06/26 18:48:20;;;;;;;;;7.50;6.25;;;;;22.67;57.71;100726.69;4975089;28;45384;-61
2021/06/26 18:50:45;;;;;;;;;7.25;6.50;;;;;22.64;58.27;100733.31;4974502;28;61684;-60
2021/06/26 18:53:11;;;;;;;;;5.00;5.00;;;;;22.62;58.34;100723.84;4975201;28;45488;-60
2021/06/26 18:55:37;;;;;;;;;6.50;6.50;;;;;22.59;57.91;100725.09;4974708;28;55132;-61
2021/06/26 18:58:02;;;;;;;;;6.75;6.75;;;;;22.56;57.99;100725.50;4973765;28;45169;-60
2021/06/26 19:00:28;;;;;;;;;7.50;6.00;;;;;22.53;58.35;100728.63;4973645;28;45353;-61
2021/06/26 19:02:53;;;;;;;;;7.00;7.00;;;;;22.49;58.23;100727.38;4974815;28;45365;-60
2021/06/26 19:05:19;;;;;;;;;7.25;6.50;;;;;22.46;58.52;100727.81;4975121;28;45560;-61
2021/06/26 19:07:44;;;;;;;;;5.50;5.50;;;;;22.42;58.57;100723.88;4973755;28;45294;-60
2021/06/26 19:10:15;;;;;;;;;5.75;4.00;;;;;22.40;58.19;100732.13;4974822;28;46033;-61
2021/06/26 19:12:40;;;;;;;;;5.75;5.50;;;;;22.38;58.22;100720.81;4974826;28;45323;-61
2021/06/26 19:15:06;;;;;;;;;5.25;5.00;;;;;22.36;58.26;100726.34;4974904;28;45177;-60
2021/06/26 19:17:31;;;;;;;;;4.50;4.25;;;;;22.35;58.53;100727.38;4974867;28;45482;-61
2021/06/26 19:19:57;;;;;;;;;5.75;5.50;;;;;22.33;58.73;100732.13;4976534;27;45331;-61
2021/06/26 19:22:23;;;;;;;;;5.50;4.25;;;;;22.32;58.20;100727.81;4974600;28;45355;-60
2021/06/26 19:24:49;;;;;;;;;5.00;5.00;;;;;22.29;58.57;100730.91;4974858;28;45503;-60
2021/06/26 19:27:14;;;;;;;;;7.00;6.00;;;;;22.27;58.22;100727.59;4974293;28;49079;-60
2021/06/26 19:29:40;;;;;;;;;7.00;7.00;;;;;22.26;58.18;100730.50;4973699;28;45392;-60
2021/06/26 19:32:05;;;;;;;;;5.00;5.00;;;;;22.23;58.53;100732.56;4973905;28;63910;-61
2021/06/26 19:34:31;;;;;;;;;6.50;6.00;;;;;22.21;58.51;100725.78;4974638;28;45398;-61
2021/06/26 19:36:56;;;;;;;;;6.25;6.00;;;;;22.19;58.26;100730.53;4974639;28;45429;-60
2021/06/26 19:39:22;;;;;;;;;9.75;9.75;;;;;22.17;58.29;100727.25;4973994;28;52190;-60
2021/06/26 19:41:48;;;;;;;;;7.00;7.00;;;;;22.12;59.11;100727.03;4974421;28;45297;-59
2021/06/26 19:44:13;;;;;;;;;7.25;6.75;;;;;22.11;58.77;100730.75;4973665;28;64956;-60
2021/06/26 19:46:38;;;;;;;;;8.00;4.50;;;;;22.08;58.97;100730.13;4974080;28;52656;-60
2021/06/26 19:49:04;;;;;;;;;7.00;6.00;;;;;22.07;58.62;100733.84;4972487;28;59774;-59
2021/06/26 19:51:29;;;;;;;;;8.25;7.00;;;;;22.05;58.52;100741.25;4974232;28;45421;-60
2021/06/26 19:53:54;;;;;;;;;7.50;6.75;;;;;22.02;58.75;100733.63;4973703;28;59213;-60
2021/06/26 19:56:20;;;;;;;;;6.75;5.75;;;;;22.01;58.71;100726.63;4974327;28;45533;-60
2021/06/26 19:58:47;;;;;;;;;5.25;5.25;;;;;22.00;58.76;100735.69;4973524;28;58097;-60
2021/06/26 20:01:12;;;;;;;;;6.75;6.75;;;;;21.97;58.74;100729.94;4974138;28;45367;-60
2021/06/26 20:03:38;;;;;;;;;6.50;6.50;;;;;21.94;58.68;100733.84;4974312;28;45392;-60
2021/06/26 20:06:04;;;;;;;;;7.00;7.00;;;;;21.91;59.29;100739.59;4974285;28;45225;-60
2021/06/26 20:08:30;;;;;;;;;7.50;7.00;;;;;21.88;59.14;100734.66;4973945;28;46304;-59
2021/06/26 20:10:55;;;;;;;;;6.25;6.25;;;;;21.84;58.86;100730.75;4973299;28;62905;-60
2021/06/26 20:13:20;;;;;;;;;9.00;7.25;;;;;21.81;59.40;100733.84;4974212;28;45349;-60
2021/06/26 20:15:46;;;;;;;;;10.00;8.00;;;;;21.79;59.42;100748.25;4973169;28;65704;-60
2021/06/26 20:18:11;;;;;;;;;11.25;11.25;;;;;21.75;59.42;100743.50;4973541;28;52696;-60
2021/06/26 20:20:37;;;;;;;;;7.50;7.00;;;;;21.73;59.02;100743.72;4973561;28;45422;-59
2021/06/26 20:23:03;;;;;;;;;7.25;7.25;;;;;21.72;59.01;100736.75;4973926;28;45456;-59
2021/06/26 20:25:28;;;;;;;;;5.75;5.75;;;;;21.70;59.08;100738.78;4973914;28;45267;-59
2021/06/26 20:27:54;;;;;;;;;7.50;7.00;;;;;21.68;59.39;100734.66;4972368;28;73702;-60
2021/06/26 20:30:19;;;;;;;;;9.00;8.00;;;;;21.65;59.63;100741.25;4972968;28;63470;-60
2021/06/26 20:32:45;;;;;;;;;8.25;7.75;;;;;21.63;59.67;100737.97;4973307;28;45394;-59
2021/06/26 20:35:11;;;;;;;;;11.00;11.00;;;;;21.60;59.80;100743.69;4973236;28;59485;-60
2021/06/26 20:37:36;;;;;;;;;11.25;9.50;;;;;21.57;59.68;100736.88;4973416;28;45950;-59
2021/06/26 20:40:04;;;;;;;;;12.75;8.25;;;;;21.55;59.49;100746.97;4973331;28;52548;-60
2021/06/26 20:42:29;;;;;;;;;11.25;9.75;;;;;21.53;59.57;100732.16;4976619;28;45220;-59
2021/06/26 20:44:54;;;;;;;;;12.75;8.00;;;;;21.50;60.20;100739.56;4975909;28;55365;-59
2021/06/26 20:47:20;;;;;;;;;11.75;11.50;;;;;21.49;59.85;100737.91;4975274;28;65099;-60
2021/06/26 20:49:46;;;;;;;;;11.75;9.25;;;;;21.48;59.92;100735.44;4976020;28;45876;-59
2021/06/26 20:52:11;;;;;;;;;9.75;9.75;;;;;21.46;60.12;100732.16;4976377;28;45553;-60
2021/06/26 20:54:37;;;;;;;;;9.50;8.25;;;;;21.43;60.59;100733.38;4976425;28;45537;-60
2021/06/26 20:57:04;;;;;;;;;9.25;9.25;;;;;21.38;60.12;100741.19;4976012;28;50336;-60
2021/06/26 20:59:30;;;;;;;;;9.25;7.00;;;;;21.37;60.50;100731.50;4976223;28;45425;-60
2021/06/26 21:01:55;;;;;;;;;9.00;7.00;;;;;21.33;60.35;100733.78;4978767;27;45325;-59
2021/06/26 21:04:21;;;;;;;;;5.75;5.75;;;;;21.31;60.12;100729.66;4975304;28;70584;-61
2021/06/26 21:06:46;;;;;;;;;6.00;6.00;;;;;21.28;60.76;100730.88;4976084;28;45944;-60
2021/06/26 21:09:12;;;;;;;;;10.75;9.75;;;;;21.25;60.66;100733.97;4976092;28;45287;-60
2021/06/26 21:11:37;;;;;;;;;9.00;7.00;;;;;21.22;60.73;100731.69;4975553;28;57051;-60
2021/06/26 21:14:02;;;;;;;;;12.25;8.00;;;;;21.19;60.90;100726.75;4976225;28;45232;-60
2021/06/26 21:16:28;;;;;;;;;7.50;7.50;;;;;21.17;61.30;100728.81;4975132;28;71430;-60
2021/06/26 21:18:53;;;;;;;;;9.50;8.50;;;;;21.13;61.17;100723.06;4974729;28;73190;-60
2021/06/26 21:21:18;;;;;;;;;10.50;9.25;;;;;21.12;61.68;100720.56;4974155;28;63830;-60
2021/06/26 21:23:44;;;;;;;;;10.75;10.25;;;;;21.08;61.11;100720.16;4975444;28;62615;-60
2021/06/26 21:26:09;;;;;;;;;12.00;9.75;;;;;21.06;61.20;100711.53;4974923;28;73303;-60
2021/06/26 21:28:34;;;;;;;;;13.75;12.75;;;;;21.03;61.53;100720.75;4975273;28;66028;-60
2021/06/26 21:31:00;;;;;;;;;9.00;9.00;;;;;21.01;61.34;100716.63;4975740;28;49646;-61
2021/06/26 21:33:25;;;;;;;;;15.50;14.50;;;;;20.98;61.42;100714.38;4975637;28;52530;-61
2021/06/26 21:35:51;;;;;;;;;11.50;10.75;;;;;20.96;61.54;100711.88;4975519;28;57844;-61
2021/06/26 21:38:16;;;;;;;;;11.00;10.00;;;;;20.95;61.43;100714.78;4975945;28;45441;-60
2021/06/26 21:40:42;;;;;;;;;13.50;10.00;;;;;20.92;61.72;100716.00;4975823;28;45947;-61
2021/06/26 21:43:07;;;;;;;;;14.50;10.50;;;;;20.90;61.27;100702.84;4975916;28;45524;-60
2021/06/26 21:45:33;;;;;;;;;11.00;9.00;;;;;20.88;61.04;100702.22;4975638;28;45387;-61
2021/06/26 21:47:58;;;;;;;;;9.25;9.00;;;;;20.86;61.45;100701.59;4975689;28;45297;-61
2021/06/26 21:50:24;;;;;;;;;9.50;9.50;;;;;20.85;61.41;100704.47;4975922;28;45430;-60
2021/06/26 21:52:49;;;;;;;;;9.50;8.75;;;;;20.82;61.14;100700.34;4975399;28;45577;-61
2021/06/26 21:55:14;;;;;;;;;7.00;7.00;;;;;20.82;61.41;100688.84;4974800;28;66194;-60
2021/06/26 21:57:40;;;;;;;;;10.25;8.25;;;;;20.80;61.38;100696.25;4975586;28;45309;-61
2021/06/26 22:00:10;;;;;;;;;11.50;10.75;;;;;20.79;61.52;100694.59;4975693;28;45235;-60
2021/06/26 22:02:36;;;;;;;;;8.75;8.75;;;;;20.78;61.50;100699.09;4975718;28;45426;-61
2021/06/26 22:05:01;;;;;;;;;11.50;10.25;;;;;20.75;61.91;100702.13;4974576;28;70959;-60
2021/06/26 22:07:27;;;;;;;;;9.00;8.50;;;;;20.72;61.94;100700.69;4975554;28;45402;-60
2021/06/26 22:09:52;;;;;;;;;10.00;7.75;;;;;20.71;61.23;100707.06;4975020;28;57826;-60
2021/06/26 22:12:17;;;;;;;;;10.25;7.75;;;;;20.68;61.76;100703.94;4975216;28;52767;-60
2021/06/26 22:14:43;;;;;;;;;11.50;10.00;;;;;20.67;61.43;100700.47;4974709;28;62870;-60
2021/06/26 22:17:08;;;;;;;;;8.75;7.75;;;;;20.66;61.49;100695.34;4974385;28;71758;-60
2021/06/26 22:19:33;;;;;;;;;10.25;9.25;;;;;20.65;61.99;100697.16;4975034;28;46245;-60
2021/06/26 22:21:59;;;;;;;;;12.50;10.50;;;;;20.64;61.36;100700.06;4975460;28;45295;-60
2021/06/26 22:24:24;;;;;;;;;8.75;8.50;;;;;20.60;62.02;100692.44;4975120;28;47022;-60
2021/06/26 22:26:50;;;;;;;;;10.75;8.25;;;;;20.59;61.70;100687.28;4974223;28;69035;-60
2021/06/26 22:29:15;;;;;;;;;12.00;9.50;;;;;20.57;61.95;100687.50;4975039;28;52853;-60
2021/06/26 22:31:40;;;;;;;;;11.00;11.00;;;;;20.57;61.59;100681.31;4975463;28;45517;-60
2021/06/26 22:34:06;;;;;;;;;9.00;9.00;;;;;20.56;61.80;100674.34;4975198;28;46083;-60
2021/06/26 22:36:31;;;;;;;;;12.25;11.75;;;;;20.55;62.06;100678.88;4975167;28;45367;-60
2021/06/26 22:38:57;;;;;;;;;17.75;15.25;;;;;20.54;61.70;100679.03;4975154;28;45235;-60
2021/06/26 22:41:22;;;;;;;;;9.75;9.75;;;;;20.55;61.60;100678.03;4974951;28;47516;-61
2021/06/26 22:43:47;;;;;;;;;11.00;10.00;;;;;20.54;61.41;100673.72;4974596;28;57611;-60
2021/06/26 22:46:13;;;;;;;;;10.25;10.25;;;;;20.53;61.61;100669.38;4974099;28;72377;-61
2021/06/26 22:48:38;;;;;;;;;14.50;12.00;;;;;20.54;61.33;100673.72;4975245;28;46045;-60
2021/06/26 22:51:04;;;;;;;;;16.00;11.00;;;;;20.54;60.92;100665.69;4974547;28;62240;-61
2021/06/26 22:53:29;;;;;;;;;12.00;10.00;;;;;20.55;61.46;100672.69;4974956;28;45388;-60
2021/06/26 22:55:59;;;;;;;;;8.00;8.00;;;;;20.54;61.22;100668.38;4975032;28;45260;-60
2021/06/26 22:58:24;;;;;;;;;12.25;10.25;;;;;20.54;61.14;100663.88;4975209;28;45366;-60
2021/06/26 23:00:51;;;;;;;;;10.00;8.75;;;;;20.53;60.92;100656.03;4974951;28;45504;-60
2021/06/26 23:03:16;;;;;;;;;11.00;9.75;;;;;20.53;61.24;100662.22;4973851;28;45264;-60
2021/06/26 23:05:42;;;;;;;;;10.50;9.75;;;;;20.54;61.12;100657.69;4975021;28;45245;-60
2021/06/26 23:08:08;;;;;;;;;8.75;8.75;;;;;20.54;60.92;100665.69;4975034;28;45162;-60
2021/06/26 23:10:40;;;;;;;;;10.50;10.00;;;;;20.54;61.23;100668.38;4974992;28;45447;-60
2021/06/26 23:13:05;;;;;;;;;8.75;8.75;;;;;20.53;60.91;100662.22;4974724;28;46253;-60
2021/06/26 23:15:30;;;;;;;;;10.00;10.00;;;;;20.51;60.88;100658.94;4974720;28;45280;-61
2021/06/26 23:17:56;;;;;;;;;12.75;9.25;;;;;20.51;60.54;100668.75;4973625;28;45585;-60
2021/06/26 23:20:27;;;;;;;;;9.25;8.75;;;;;20.49;61.21;100668.97;4974598;28;45490;-60
2021/06/26 23:22:52;;;;;;;;;13.50;10.50;;;;;20.49;61.01;100658.31;4974690;28;46141;-60
2021/06/26 23:25:17;;;;;;;;;11.50;10.50;;;;;20.48;60.35;100658.47;4974637;28;45405;-60
2021/06/26 23:27:43;;;;;;;;;10.25;10.25;;;;;20.46;60.79;100664.03;4975803;28;45348;-60
2021/06/26 23:30:09;;;;;;;;;12.75;9.75;;;;;20.44;60.74;100658.88;4974302;28;54319;-60
2021/06/26 23:32:39;;;;;;;;;9.75;8.75;;;;;20.44;60.61;100655.41;4974334;28;45740;-59
2021/06/26 23:35:06;;;;;;;;;17.75;16.25;;;;;20.44;60.93;100658.06;4957722;28;45391;-60